Time,TemperatureF,DewpointF,PressureIn,WindDirection,WindDirectionDegrees,WindSpeedMPH,WindSpeedGustMPH,Humidity,HourlyPrecipIn,Conditions,Clouds,dailyrainin,SoftwareType,DateUTC
2013-10-14 00:10:00,50.8,47.0,29.92,WNW,302,0.0,-999.0,86,-99.99,,,0.00,weatherlink.com 1.10,2013-10-13 23:10:00,
2013-10-14 00:25:00,50.8,47.0,29.92,WNW,300,0.0,-999.0,87,-99.99,,,0.00,weatherlink.com 1.10,2013-10-13 23:25:00,
2013-10-14 00:40:00,50.8,47.0,29.92,WNW,300,0.0,-999.0,87,-99.99,,,0.00,weatherlink.com 1.10,2013-10-13 23:40:00,
2013-10-14 00:55:00,50.8,47.0,29.91,WNW,300,0.0,-999.0,88,-99.99,,,0.00,weatherlink.com 1.10,2013-10-13 23:55:00,
2013-10-14 01:10:00,50.8,47.0,29.91,WNW,300,0.0,-999.0,88,-99.99,,,0.00,weatherlink.com 1.10,2013-10-14 00:10:00,
2013-10-14 01:25:00,50.8,47.0,29.91,WNW,299,0.0,-999.0,88,-99.99,,,0.00,weatherlink.com 1.10,2013-10-14 00:25:00,
2013-10-14 01:40:00,50.7,48.0,29.91,WNW,298,0.0,-999.0,89,-99.99,,,0.00,weatherlink.com 1.10,2013-10-14 00:40:00,
2013-10-14 01:55:00,50.4,48.0,29.91,WNW,294,0.0,-999.0,90,-99.99,,,0.00,weatherlink.com 1.10,2013-10-14 00:55:00,
2013-10-14 02:10:00,50.3,48.0,29.91,West,279,0.0,-999.0,91,-99.99,,,0.00,weatherlink.com 1.10,2013-10-14 01:10:00,
2013-10-14 02:25:00,50.2,48.0,29.91,West,278,0.0,-999.0,91,-99.99,,,0.00,weatherlink.com 1.10,2013-10-14 01:25:00,
2013-10-14 02:40:00,50.1,48.0,29.90,West,278,0.0,-999.0,91,-99.99,,,0.00,weatherlink.com 1.10,2013-10-14 01:40:00,
2013-10-14 02:55:00,50.1,48.0,29.90,West,278,0.0,-999.0,92,-99.99,,,0.00,weatherlink.com 1.10,2013-10-14 01:55:00,
2013-10-14 03:10:00,50.1,48.0,29.90,West,278,0.0,-999.0,92,-99.99,,,0.00,weatherlink.com 1.10,2013-10-14 02:10:00,
2013-10-14 03:25:00,50.1,48.0,29.89,West,278,0.0,-999.0,92,-99.99,,,0.00,weatherlink.com 1.10,2013-10-14 02:25:00,
2013-10-14 03:40:00,50.2,48.0,29.89,West,278,0.0,-999.0,92,-99.99,,,0.00,weatherlink.com 1.10,2013-10-14 02:40:00,
2013-10-14 03:55:00,50.4,49.0,29.89,West,278,0.0,-999.0,93,-99.99,,,0.00,weatherlink.com 1.10,2013-10-14 02:55:00,
2013-10-14 04:10:00,50.3,48.0,29.89,West,278,0.0,-999.0,92,-99.99,,,0.00,weatherlink.com 1.10,2013-10-14 03:10:00,
2013-10-14 04:25:00,50.2,48.0,29.89,West,278,0.0,-999.0,92,-99.99,,,0.00,weatherlink.com 1.10,2013-10-14 03:25:00,
2013-10-14 04:40:00,50.2,48.0,29.88,West,278,0.0,-999.0,93,-99.99,,,0.00,weatherlink.com 1.10,2013-10-14 03:40:00,
2013-10-14 04:55:00,50.9,49.0,29.89,North,10,0.0,-999.0,93,-99.99,,,0.00,weatherlink.com 1.10,2013-10-14 03:55:00,
2013-10-14 05:10:00,51.4,49.0,29.88,NNE,32,0.0,-999.0,92,-99.99,,,0.00,weatherlink.com 1.10,2013-10-14 04:10:00,
2013-10-14 05:25:00,51.4,49.0,29.88,NNE,30,0.0,-999.0,91,-99.99,,,0.00,weatherlink.com 1.10,2013-10-14 04:25:00,
2013-10-14 05:40:00,51.3,49.0,29.88,NNE,30,0.0,-999.0,90,-99.99,,,0.00,weatherlink.com 1.10,2013-10-14 04:40:00,
2013-10-14 05:55:00,51.1,48.0,29.88,NNE,30,0.0,-999.0,90,-99.99,,,0.00,weatherlink.com 1.10,2013-10-14 04:55:00,
2013-10-14 06:10:00,50.3,47.0,29.88,NNE,30,0.0,-999.0,89,-99.99,,,0.00,weatherlink.com 1.10,2013-10-14 05:10:00,
2013-10-14 06:26:00,49.8,47.0,29.88,NNE,27,0.0,-999.0,90,-99.99,,,0.00,weatherlink.com 1.10,2013-10-14 05:26:00,
2013-10-14 06:41:00,50.0,48.0,29.88,NNE,12,0.0,-999.0,91,-99.99,,,0.00,weatherlink.com 1.10,2013-10-14 05:41:00,
2013-10-14 06:56:00,50.2,47.0,29.88,NNE,15,0.0,-999.0,90,-99.99,,,0.00,weatherlink.com 1.10,2013-10-14 05:56:00,
2013-10-14 07:11:00,49.9,47.0,29.88,NNE,16,0.0,-999.0,90,-99.99,,,0.00,weatherlink.com 1.10,2013-10-14 06:11:00,
2013-10-14 07:26:00,-999.0,-99.9,29.88,North,-999,-999.0,-999.0,-999,-99.99,,,0.00,weatherlink.com 1.10,2013-10-14 06:26:00,
2013-10-14 07:41:00,-999.0,-99.9,29.89,North,-999,-999.0,-999.0,-999,-99.99,,,0.00,weatherlink.com 1.10,2013-10-14 06:41:00,
2013-10-14 07:56:00,-999.0,-99.9,29.89,North,-999,-999.0,-999.0,-999,-99.99,,,0.00,weatherlink.com 1.10,2013-10-14 06:56:00,
2013-10-14 08:11:00,-999.0,-99.9,29.89,North,-999,-999.0,-999.0,-999,-99.99,,,0.00,weatherlink.com 1.10,2013-10-14 07:11:00,
2013-10-14 08:26:00,-999.0,-99.9,29.89,North,-999,-999.0,-999.0,-999,-99.99,,,0.00,weatherlink.com 1.10,2013-10-14 07:26:00,
2013-10-14 08:41:00,-999.0,-99.9,29.89,North,-999,-999.0,-999.0,-999,-99.99,,,0.00,weatherlink.com 1.10,2013-10-14 07:41:00,
2013-10-14 08:56:00,50.3,47.0,29.89,NNE,12,0.0,-999.0,88,-99.99,,,0.00,weatherlink.com 1.10,2013-10-14 07:56:00,
2013-10-14 09:11:00,51.0,47.0,29.89,NNE,12,0.0,-999.0,87,-99.99,,,0.00,weatherlink.com 1.10,2013-10-14 08:11:00,
2013-10-14 09:26:00,51.6,48.0,29.89,NNE,28,0.0,-999.0,86,-99.99,,,0.00,weatherlink.com 1.10,2013-10-14 08:26:00,
2013-10-14 09:41:00,52.3,46.0,29.88,ENE,59,0.0,-999.0,80,-99.99,,,0.00,weatherlink.com 1.10,2013-10-14 08:41:00,
2013-10-14 09:56:00,52.7,46.0,29.88,NNE,27,0.0,-999.0,78,-99.99,,,0.00,weatherlink.com 1.10,2013-10-14 08:56:00,
2013-10-14 10:11:00,52.8,46.0,29.88,NE,47,0.0,-999.0,79,-99.99,,,0.00,weatherlink.com 1.10,2013-10-14 09:11:00,
2013-10-14 10:26:00,52.8,47.0,29.88,NE,45,0.0,-999.0,81,-99.99,,,0.00,weatherlink.com 1.10,2013-10-14 09:26:00,
2013-10-14 10:41:00,52.9,47.0,29.88,NNE,27,0.0,-999.0,80,-99.99,,,0.00,weatherlink.com 1.10,2013-10-14 09:41:00,
2013-10-14 10:56:00,53.1,47.0,29.89,NE,38,0.0,-999.0,79,-99.99,,,0.00,weatherlink.com 1.10,2013-10-14 09:56:00,
2013-10-14 11:11:00,53.3,46.0,29.89,NE,37,0.0,-999.0,77,-99.99,,,0.00,weatherlink.com 1.10,2013-10-14 10:11:00,
2013-10-14 11:26:00,54.1,46.0,29.89,ENE,61,0.0,-999.0,75,-99.99,,,0.00,weatherlink.com 1.10,2013-10-14 10:26:00,
2013-10-14 11:41:00,54.1,46.0,29.88,ENE,65,0.0,-999.0,75,-99.99,,,0.00,weatherlink.com 1.10,2013-10-14 10:41:00,
2013-10-14 11:56:00,54.6,46.0,29.88,NNE,25,0.0,-999.0,74,-99.99,,,0.00,weatherlink.com 1.10,2013-10-14 10:56:00,
2013-10-14 12:11:00,54.6,46.0,29.88,ENE,59,0.0,-999.0,72,-99.99,,,0.00,weatherlink.com 1.10,2013-10-14 11:11:00,
2013-10-14 12:26:00,54.8,45.0,29.88,ENE,59,0.0,-999.0,70,-99.99,,,0.00,weatherlink.com 1.10,2013-10-14 11:26:00,
2013-10-14 12:41:00,54.8,46.0,29.88,East,95,0.0,-999.0,71,-99.99,,,0.00,weatherlink.com 1.10,2013-10-14 11:41:00,
2013-10-14 12:56:00,55.0,45.0,29.88,East,80,0.0,-999.0,69,-99.99,,,0.00,weatherlink.com 1.10,2013-10-14 11:56:00,
2013-10-14 13:11:00,54.9,45.0,29.88,NE,36,0.0,-999.0,69,-99.99,,,0.00,weatherlink.com 1.10,2013-10-14 12:11:00,
2013-10-14 13:26:00,54.8,45.0,29.88,East,89,0.0,-999.0,70,-99.99,,,0.00,weatherlink.com 1.10,2013-10-14 12:26:00,
2013-10-14 13:41:00,54.5,45.0,29.87,NE,46,0.0,-999.0,71,-99.99,,,0.00,weatherlink.com 1.10,2013-10-14 12:41:00,
2013-10-14 13:56:00,54.5,46.0,29.87,NE,40,0.0,-999.0,72,-99.99,,,0.00,weatherlink.com 1.10,2013-10-14 12:56:00,
2013-10-14 14:11:00,54.6,46.0,29.87,NE,38,0.0,-999.0,72,-99.99,,,0.00,weatherlink.com 1.10,2013-10-14 13:11:00,
2013-10-14 14:26:00,54.6,46.0,29.87,NNE,32,0.0,-999.0,72,-99.99,,,0.00,weatherlink.com 1.10,2013-10-14 13:26:00,
2013-10-14 14:41:00,54.5,46.0,29.87,NNE,30,0.0,-999.0,72,-99.99,,,0.00,weatherlink.com 1.10,2013-10-14 13:41:00,
2013-10-14 14:56:00,54.4,46.0,29.87,NE,39,0.0,-999.0,73,-99.99,,,0.00,weatherlink.com 1.10,2013-10-14 13:56:00,
2013-10-14 15:11:00,54.5,46.0,29.87,NNE,25,0.0,-999.0,72,-99.99,,,0.00,weatherlink.com 1.10,2013-10-14 14:11:00,
2013-10-14 15:26:00,54.5,46.0,29.86,NNE,14,0.0,-999.0,72,-99.99,,,0.00,weatherlink.com 1.10,2013-10-14 14:26:00,
2013-10-14 15:41:00,54.4,46.0,29.86,ENE,67,0.0,-999.0,72,-99.99,,,0.00,weatherlink.com 1.10,2013-10-14 14:41:00,
2013-10-14 15:56:00,54.3,45.0,29.86,NE,40,0.0,-999.0,72,-99.99,,,0.00,weatherlink.com 1.10,2013-10-14 14:56:00,
2013-10-14 16:11:00,54.5,46.0,29.86,NE,55,0.0,-999.0,73,-99.99,,,0.00,weatherlink.com 1.10,2013-10-14 15:11:00,
2013-10-14 16:26:00,54.8,46.0,29.85,NE,52,0.0,-999.0,72,-99.99,,,0.00,weatherlink.com 1.10,2013-10-14 15:26:00,
2013-10-14 16:57:00,55.7,46.0,29.84,NE,46,0.0,-999.0,70,-99.99,,,0.00,weatherlink.com 1.10,2013-10-14 15:57:00,
2013-10-14 17:12:00,55.3,46.0,29.84,NNE,26,0.0,-999.0,71,-99.99,,,0.00,weatherlink.com 1.10,2013-10-14 16:12:00,
2013-10-14 17:27:00,55.3,45.0,29.84,NE,42,0.0,-999.0,69,-99.99,,,0.00,weatherlink.com 1.10,2013-10-14 16:27:00,
2013-10-14 17:42:00,54.8,45.0,29.84,NE,35,0.0,-999.0,70,-99.99,,,0.00,weatherlink.com 1.10,2013-10-14 16:42:00,
2013-10-14 17:57:00,54.4,45.0,29.84,NE,46,0.0,-999.0,71,-99.99,,,0.00,weatherlink.com 1.10,2013-10-14 16:57:00,
2013-10-14 18:12:00,54.1,45.0,29.85,NNE,28,0.0,-999.0,72,-99.99,,,0.00,weatherlink.com 1.10,2013-10-14 17:12:00,
2013-10-14 18:27:00,53.8,45.0,29.85,North,9,0.0,-999.0,73,-99.99,,,0.00,weatherlink.com 1.10,2013-10-14 17:27:00,
2013-10-14 18:42:00,53.5,45.0,29.85,North,5,0.0,-999.0,74,-99.99,,,0.00,weatherlink.com 1.10,2013-10-14 17:42:00,
2013-10-14 18:57:00,53.2,45.0,29.85,North,5,0.0,-999.0,75,-99.99,,,0.00,weatherlink.com 1.10,2013-10-14 17:57:00,
2013-10-14 19:12:00,53.0,45.0,29.85,North,5,0.0,-999.0,75,-99.99,,,0.00,weatherlink.com 1.10,2013-10-14 18:12:00,
2013-10-14 19:27:00,53.0,45.0,29.85,North,5,0.0,-999.0,75,-99.99,,,0.00,weatherlink.com 1.10,2013-10-14 18:27:00,
2013-10-14 19:42:00,52.8,45.0,29.85,North,5,0.0,-999.0,76,-99.99,,,0.00,weatherlink.com 1.10,2013-10-14 18:42:00,
2013-10-14 19:57:00,52.7,45.0,29.85,North,5,0.0,-999.0,76,-99.99,,,0.00,weatherlink.com 1.10,2013-10-14 18:57:00,
2013-10-14 20:12:00,52.3,45.0,29.85,North,5,0.0,-999.0,76,-99.99,,,0.00,weatherlink.com 1.10,2013-10-14 19:12:00,
2013-10-14 20:27:00,51.7,45.0,29.84,North,5,0.0,-999.0,77,-99.99,,,0.00,weatherlink.com 1.10,2013-10-14 19:27:00,
2013-10-14 20:42:00,51.3,45.0,29.83,North,5,0.0,-999.0,78,-99.99,,,0.00,weatherlink.com 1.10,2013-10-14 19:42:00,
2013-10-14 20:57:00,51.4,45.0,29.83,North,5,0.0,-999.0,79,-99.99,,,0.00,weatherlink.com 1.10,2013-10-14 19:57:00,
2013-10-14 21:12:00,51.7,46.0,29.82,NE,51,0.0,-999.0,80,-99.99,,,0.00,weatherlink.com 1.10,2013-10-14 20:12:00,
2013-10-14 21:27:00,51.9,46.0,29.83,NE,44,0.0,-999.0,80,-99.99,,,0.00,weatherlink.com 1.10,2013-10-14 20:27:00,
2013-10-14 21:42:00,51.8,46.0,29.83,NE,43,0.0,-999.0,79,-99.99,,,0.00,weatherlink.com 1.10,2013-10-14 20:42:00,
2013-10-14 21:57:00,51.4,45.0,29.84,NE,43,0.0,-999.0,79,-99.99,,,0.00,weatherlink.com 1.10,2013-10-14 20:57:00,
2013-10-14 22:12:00,50.6,45.0,29.84,NE,43,0.0,-999.0,80,-99.99,,,0.00,weatherlink.com 1.10,2013-10-14 21:12:00,
2013-10-14 22:27:00,50.0,44.0,29.84,NE,42,0.0,-999.0,81,-99.99,,,0.00,weatherlink.com 1.10,2013-10-14 21:27:00,
2013-10-14 22:42:00,49.1,44.0,29.84,WNW,283,0.0,-999.0,83,-99.99,,,0.00,weatherlink.com 1.10,2013-10-14 21:42:00,
2013-10-14 22:57:00,48.6,44.0,29.85,WNW,282,0.0,-999.0,84,-99.99,,,0.00,weatherlink.com 1.10,2013-10-14 21:57:00,
2013-10-14 23:12:00,48.2,44.0,29.85,West,272,0.0,-999.0,84,-99.99,,,0.00,weatherlink.com 1.10,2013-10-14 22:12:00,
2013-10-14 23:27:00,47.9,43.0,29.85,West,275,0.0,-999.0,84,-99.99,,,0.00,weatherlink.com 1.10,2013-10-14 22:27:00,
2013-10-14 23:42:00,47.8,43.0,29.85,West,275,0.0,-999.0,84,-99.99,,,0.00,weatherlink.com 1.10,2013-10-14 22:42:00,
2013-10-14 23:57:00,47.6,43.0,29.85,West,277,0.0,-999.0,84,-99.99,,,0.00,weatherlink.com 1.10,2013-10-14 22:57:00,